sensor_id;sensor_type;location;lat;lon;timestamp;P1;durP1;ratioP1;P2;durP2;ratioP2
2480;SDS011;57396;48.742;9.128;2022-09-21T00:00:35;6.10;;;4.07;;
2480;SDS011;57396;48.742;9.128;2022-09-21T00:03:01;6.10;;;3.87;;
2480;SDS011;57396;48.742;9.128;2022-09-21T00:05:27;7.60;;;4.10;;
2480;SDS011;57396;48.742;9.128;2022-09-21T00:07:53;6.13;;;3.60;;
2480;SDS011;57396;48.742;9.128;2022-09-21T00:10:18;6.40;;;4.00;;
2480;SDS011;57396;48.742;9.128;2022-09-21T00:12:45;5.00;;;3.90;;
2480;SDS011;57396;48.742;9.128;2022-09-21T00:15:12;5.30;;;3.70;;
2480;SDS011;57396;48.742;9.128;2022-09-21T00:17:38;7.60;;;4.10;;
2480;SDS011;57396;48.742;9.128;2022-09-21T00:20:03;4.77;;;3.90;;
2480;SDS011;57396;48.742;9.128;2022-09-21T00:22:30;6.23;;;3.93;;
2480;SDS011;57396;48.742;9.128;2022-09-21T00:24:56;5.50;;;4.07;;
2480;SDS011;57396;48.742;9.128;2022-09-21T00:27:21;7.33;;;4.27;;
2480;SDS011;57396;48.742;9.128;2022-09-21T00:29:54;5.60;;;3.67;;
2480;SDS011;57396;48.742;9.128;2022-09-21T00:32:25;7.17;;;4.13;;
2480;SDS011;57396;48.742;9.128;2022-09-21T00:34:50;8.23;;;3.80;;
2480;SDS011;57396;48.742;9.128;2022-09-21T00:37:17;8.57;;;3.90;;
2480;SDS011;57396;48.742;9.128;2022-09-21T00:39:43;4.30;;;3.53;;
2480;SDS011;57396;48.742;9.128;2022-09-21T00:42:08;5.77;;;4.10;;
2480;SDS011;57396;48.742;9.128;2022-09-21T00:44:34;8.80;;;3.77;;
2480;SDS011;57396;48.742;9.128;2022-09-21T00:47:04;7.03;;;3.30;;
2480;SDS011;57396;48.742;9.128;2022-09-21T00:49:32;3.83;;;3.10;;
2480;SDS011;57396;48.742;9.128;2022-09-21T00:51:58;4.40;;;3.50;;
2480;SDS011;57396;48.742;9.128;2022-09-21T00:54:27;4.97;;;3.63;;
2480;SDS011;57396;48.742;9.128;2022-09-21T00:56:54;5.83;;;4.00;;
2480;SDS011;57396;48.742;9.128;2022-09-21T00:59:20;5.43;;;3.27;;
2480;SDS011;57396;48.742;9.128;2022-09-21T01:01:46;5.70;;;3.50;;
2480;SDS011;57396;48.742;9.128;2022-09-21T01:04:12;5.20;;;3.50;;
2480;SDS011;57396;48.742;9.128;2022-09-21T01:06:38;5.23;;;3.47;;
2480;SDS011;57396;48.742;9.128;2022-09-21T01:09:05;4.40;;;3.53;;
2480;SDS011;57396;48.742;9.128;2022-09-21T01:11:38;7.37;;;3.20;;
2480;SDS011;57396;48.742;9.128;2022-09-21T01:22:47;5.67;;;3.47;;
2480;SDS011;57396;48.742;9.128;2022-09-21T01:30:40;5.07;;;3.20;;
2480;SDS011;57396;48.742;9.128;2022-09-21T01:35:42;5.40;;;3.20;;
2480;SDS011;57396;48.742;9.128;2022-09-21T01:38:32;4.37;;;3.00;;
2480;SDS011;57396;48.742;9.128;2022-09-21T01:40:59;7.33;;;3.80;;
2480;SDS011;57396;48.742;9.128;2022-09-21T01:43:30;5.93;;;3.40;;
2480;SDS011;57396;48.742;9.128;2022-09-21T01:45:58;4.73;;;3.67;;
2480;SDS011;57396;48.742;9.128;2022-09-21T01:48:26;4.03;;;3.40;;
2480;SDS011;57396;48.742;9.128;2022-09-21T01:50:56;7.37;;;3.13;;
2480;SDS011;57396;48.742;9.128;2022-09-21T01:53:32;3.80;;;2.90;;
2480;SDS011;57396;48.742;9.128;2022-09-21T01:56:03;4.47;;;2.87;;
2480;SDS011;57396;48.742;9.128;2022-09-21T01:58:33;4.10;;;3.57;;
2480;SDS011;57396;48.742;9.128;2022-09-21T02:01:00;5.57;;;3.10;;
2480;SDS011;57396;48.742;9.128;2022-09-21T02:05:52;3.70;;;3.40;;
2480;SDS011;57396;48.742;9.128;2022-09-21T02:08:18;4.80;;;2.87;;
2480;SDS011;57396;48.742;9.128;2022-09-21T02:10:46;7.40;;;3.40;;
2480;SDS011;57396;48.742;9.128;2022-09-21T02:13:12;6.63;;;3.37;;
2480;SDS011;57396;48.742;9.128;2022-09-21T02:15:47;5.13;;;3.20;;
2480;SDS011;57396;48.742;9.128;2022-09-21T02:18:30;3.73;;;3.13;;
2480;SDS011;57396;48.742;9.128;2022-09-21T02:21:01;4.53;;;3.23;;
2480;SDS011;57396;48.742;9.128;2022-09-21T02:28:48;6.97;;;3.43;;
2480;SDS011;57396;48.742;9.128;2022-09-21T02:36:50;4.43;;;3.27;;
2480;SDS011;57396;48.742;9.128;2022-09-21T02:39:28;8.20;;;3.63;;
2480;SDS011;57396;48.742;9.128;2022-09-21T02:44:38;8.33;;;3.40;;
2480;SDS011;57396;48.742;9.128;2022-09-21T02:47:21;5.10;;;2.97;;
2480;SDS011;57396;48.742;9.128;2022-09-21T02:49:51;3.80;;;2.70;;
2480;SDS011;57396;48.742;9.128;2022-09-21T02:52:19;6.53;;;3.70;;
2480;SDS011;57396;48.742;9.128;2022-09-21T02:54:47;4.87;;;3.30;;
2480;SDS011;57396;48.742;9.128;2022-09-21T02:57:15;3.70;;;3.40;;
2480;SDS011;57396;48.742;9.128;2022-09-21T02:59:42;3.80;;;3.40;;
2480;SDS011;57396;48.742;9.128;2022-09-21T03:02:11;4.30;;;3.30;;
2480;SDS011;57396;48.742;9.128;2022-09-21T03:04:37;4.03;;;3.10;;
2480;SDS011;57396;48.742;9.128;2022-09-21T03:07:05;4.50;;;3.20;;
2480;SDS011;57396;48.742;9.128;2022-09-21T03:09:31;6.47;;;3.57;;
2480;SDS011;57396;48.742;9.128;2022-09-21T03:11:56;4.70;;;3.77;;
2480;SDS011;57396;48.742;9.128;2022-09-21T03:14:22;5.03;;;3.60;;
2480;SDS011;57396;48.742;9.128;2022-09-21T03:16:47;4.40;;;3.70;;
2480;SDS011;57396;48.742;9.128;2022-09-21T03:19:13;5.93;;;3.90;;
2480;SDS011;57396;48.742;9.128;2022-09-21T03:21:39;5.43;;;3.67;;
2480;SDS011;57396;48.742;9.128;2022-09-21T03:24:05;10.17;;;3.73;;
2480;SDS011;57396;48.742;9.128;2022-09-21T03:26:31;4.40;;;3.53;;
2480;SDS011;57396;48.742;9.128;2022-09-21T03:28:57;3.80;;;3.13;;
2480;SDS011;57396;48.742;9.128;2022-09-21T03:31:22;2.97;;;2.77;;
2480;SDS011;57396;48.742;9.128;2022-09-21T03:33:47;3.20;;;2.87;;
2480;SDS011;57396;48.742;9.128;2022-09-21T03:36:13;3.83;;;3.10;;
2480;SDS011;57396;48.742;9.128;2022-09-21T03:38:39;6.00;;;3.17;;
2480;SDS011;57396;48.742;9.128;2022-09-21T03:41:04;4.57;;;3.50;;
2480;SDS011;57396;48.742;9.128;2022-09-21T03:43:30;4.33;;;3.80;;
2480;SDS011;57396;48.742;9.128;2022-09-21T03:45:56;3.93;;;3.03;;
2480;SDS011;57396;48.742;9.128;2022-09-21T03:48:22;5.00;;;3.13;;
2480;SDS011;57396;48.742;9.128;2022-09-21T03:50:47;10.10;;;4.00;;
2480;SDS011;57396;48.742;9.128;2022-09-21T03:53:13;8.43;;;3.73;;
2480;SDS011;57396;48.742;9.128;2022-09-21T03:55:39;10.40;;;5.00;;
2480;SDS011;57396;48.742;9.128;2022-09-21T03:58:04;5.03;;;4.03;;
2480;SDS011;57396;48.742;9.128;2022-09-21T04:00:29;7.40;;;4.80;;
2480;SDS011;57396;48.742;9.128;2022-09-21T04:02:55;9.93;;;6.93;;
2480;SDS011;57396;48.742;9.128;2022-09-21T04:05:20;10.43;;;7.10;;
2480;SDS011;57396;48.742;9.128;2022-09-21T04:07:46;10.10;;;7.00;;
2480;SDS011;57396;48.742;9.128;2022-09-21T04:10:13;7.10;;;5.60;;
2480;SDS011;57396;48.742;9.128;2022-09-21T04:12:40;7.93;;;5.10;;
2480;SDS011;57396;48.742;9.128;2022-09-21T04:15:08;6.20;;;5.10;;
2480;SDS011;57396;48.742;9.128;2022-09-21T04:17:37;6.60;;;4.83;;
2480;SDS011;57396;48.742;9.128;2022-09-21T04:20:02;10.10;;;4.33;;
2480;SDS011;57396;48.742;9.128;2022-09-21T04:22:28;7.67;;;5.90;;
2480;SDS011;57396;48.742;9.128;2022-09-21T04:24:55;10.03;;;5.50;;
2480;SDS011;57396;48.742;9.128;2022-09-21T04:27:21;7.10;;;5.47;;
2480;SDS011;57396;48.742;9.128;2022-09-21T04:29:46;6.20;;;4.90;;
2480;SDS011;57396;48.742;9.128;2022-09-21T04:32:12;6.20;;;4.20;;
2480;SDS011;57396;48.742;9.128;2022-09-21T04:34:38;6.03;;;4.73;;
2480;SDS011;57396;48.742;9.128;2022-09-21T04:37:04;8.53;;;4.87;;
2480;SDS011;57396;48.742;9.128;2022-09-21T04:39:32;9.33;;;4.37;;
2480;SDS011;57396;48.742;9.128;2022-09-21T04:41:58;5.70;;;4.27;;
2480;SDS011;57396;48.742;9.128;2022-09-21T04:44:24;19.80;;;14.60;;
2480;SDS011;57396;48.742;9.128;2022-09-21T04:46:49;10.57;;;8.60;;
2480;SDS011;57396;48.742;9.128;2022-09-21T04:49:15;6.30;;;5.60;;
2480;SDS011;57396;48.742;9.128;2022-09-21T04:51:40;7.77;;;6.00;;
2480;SDS011;57396;48.742;9.128;2022-09-21T04:54:06;10.00;;;6.60;;
2480;SDS011;57396;48.742;9.128;2022-09-21T04:56:32;13.60;;;6.50;;
2480;SDS011;57396;48.742;9.128;2022-09-21T04:58:57;7.40;;;5.87;;
2480;SDS011;57396;48.742;9.128;2022-09-21T05:01:23;6.70;;;5.70;;
2480;SDS011;57396;48.742;9.128;2022-09-21T05:03:48;6.80;;;5.63;;
2480;SDS011;57396;48.742;9.128;2022-09-21T05:06:14;8.23;;;6.13;;
2480;SDS011;57396;48.742;9.128;2022-09-21T05:08:39;7.57;;;5.70;;
2480;SDS011;57396;48.742;9.128;2022-09-21T05:11:23;7.00;;;4.93;;
2480;SDS011;57396;48.742;9.128;2022-09-21T05:13:49;7.90;;;5.87;;
2480;SDS011;57396;48.742;9.128;2022-09-21T05:16:15;9.87;;;6.33;;
2480;SDS011;57396;48.742;9.128;2022-09-21T05:18:41;6.73;;;5.87;;
2480;SDS011;57396;48.742;9.128;2022-09-21T05:21:06;8.63;;;6.00;;
2480;SDS011;57396;48.742;9.128;2022-09-21T05:23:32;8.93;;;6.67;;
2480;SDS011;57396;48.742;9.128;2022-09-21T05:25:57;10.20;;;6.10;;
2480;SDS011;57396;48.742;9.128;2022-09-21T05:28:23;9.80;;;7.33;;
2480;SDS011;57396;48.742;9.128;2022-09-21T05:31:10;21.57;;;7.93;;
2480;SDS011;57396;48.742;9.128;2022-09-21T05:39:20;15.80;;;8.07;;
2480;SDS011;57396;48.742;9.128;2022-09-21T05:41:45;15.63;;;8.90;;
2480;SDS011;57396;48.742;9.128;2022-09-21T05:44:12;11.63;;;7.93;;
2480;SDS011;57396;48.742;9.128;2022-09-21T05:54:35;11.67;;;7.50;;
2480;SDS011;57396;48.742;9.128;2022-09-21T06:00:08;9.97;;;7.53;;
2480;SDS011;57396;48.742;9.128;2022-09-21T06:05:22;10.50;;;8.10;;
2480;SDS011;57396;48.742;9.128;2022-09-21T06:07:47;12.33;;;8.20;;
2480;SDS011;57396;48.742;9.128;2022-09-21T06:10:13;9.73;;;7.70;;
2480;SDS011;57396;48.742;9.128;2022-09-21T06:12:40;10.13;;;7.80;;
2480;SDS011;57396;48.742;9.128;2022-09-21T06:15:06;10.50;;;7.17;;
2480;SDS011;57396;48.742;9.128;2022-09-21T06:17:33;10.80;;;8.30;;
2480;SDS011;57396;48.742;9.128;2022-09-21T06:19:58;14.50;;;7.87;;
2480;SDS011;57396;48.742;9.128;2022-09-21T06:22:24;11.50;;;8.33;;
2480;SDS011;57396;48.742;9.128;2022-09-21T06:24:49;13.30;;;7.63;;
2480;SDS011;57396;48.742;9.128;2022-09-21T06:27:14;14.90;;;8.50;;
2480;SDS011;57396;48.742;9.128;2022-09-21T06:29:40;14.37;;;7.73;;
2480;SDS011;57396;48.742;9.128;2022-09-21T06:32:05;15.73;;;9.13;;
2480;SDS011;57396;48.742;9.128;2022-09-21T06:34:31;12.17;;;9.60;;
2480;SDS011;57396;48.742;9.128;2022-09-21T06:36:56;12.07;;;8.77;;
2480;SDS011;57396;48.742;9.128;2022-09-21T06:39:22;19.53;;;9.30;;
2480;SDS011;57396;48.742;9.128;2022-09-21T06:41:47;12.93;;;8.83;;
2480;SDS011;57396;48.742;9.128;2022-09-21T06:44:13;15.70;;;9.37;;
2480;SDS011;57396;48.742;9.128;2022-09-21T06:46:38;9.50;;;8.50;;
2480;SDS011;57396;48.742;9.128;2022-09-21T06:49:04;14.20;;;9.93;;
2480;SDS011;57396;48.742;9.128;2022-09-21T06:51:29;13.97;;;9.20;;
2480;SDS011;57396;48.742;9.128;2022-09-21T06:53:55;16.53;;;9.37;;
2480;SDS011;57396;48.742;9.128;2022-09-21T06:56:21;11.20;;;8.40;;
2480;SDS011;57396;48.742;9.128;2022-09-21T06:58:47;17.57;;;9.50;;
2480;SDS011;57396;48.742;9.128;2022-09-21T07:01:13;14.60;;;9.60;;
2480;SDS011;57396;48.742;9.128;2022-09-21T07:03:39;15.17;;;10.20;;
2480;SDS011;57396;48.742;9.128;2022-09-21T07:06:06;13.73;;;9.00;;
2480;SDS011;57396;48.742;9.128;2022-09-21T07:08:32;12.07;;;8.80;;
2480;SDS011;57396;48.742;9.128;2022-09-21T07:10:58;12.70;;;10.03;;
2480;SDS011;57396;48.742;9.128;2022-09-21T07:13:24;15.30;;;8.73;;
2480;SDS011;57396;48.742;9.128;2022-09-21T07:15:50;11.83;;;8.50;;
2480;SDS011;57396;48.742;9.128;2022-09-21T07:18:16;9.33;;;8.40;;
2480;SDS011;57396;48.742;9.128;2022-09-21T07:20:41;15.10;;;8.10;;
2480;SDS011;57396;48.742;9.128;2022-09-21T07:23:13;12.33;;;7.70;;
2480;SDS011;57396;48.742;9.128;2022-09-21T07:25:40;10.50;;;6.47;;
2480;SDS011;57396;48.742;9.128;2022-09-21T07:28:09;10.50;;;6.97;;
2480;SDS011;57396;48.742;9.128;2022-09-21T07:30:36;8.93;;;6.10;;
2480;SDS011;57396;48.742;9.128;2022-09-21T07:33:02;9.03;;;6.40;;
2480;SDS011;57396;48.742;9.128;2022-09-21T07:35:28;10.70;;;6.10;;
2480;SDS011;57396;48.742;9.128;2022-09-21T07:37:56;10.50;;;6.27;;
2480;SDS011;57396;48.742;9.128;2022-09-21T07:40:22;6.87;;;6.10;;
2480;SDS011;57396;48.742;9.128;2022-09-21T07:42:48;11.50;;;6.97;;
2480;SDS011;57396;48.742;9.128;2022-09-21T07:45:13;6.93;;;5.80;;
2480;SDS011;57396;48.742;9.128;2022-09-21T07:47:39;6.87;;;6.20;;
2480;SDS011;57396;48.742;9.128;2022-09-21T07:50:04;9.80;;;6.67;;
2480;SDS011;57396;48.742;9.128;2022-09-21T07:52:30;8.00;;;5.90;;
2480;SDS011;57396;48.742;9.128;2022-09-21T07:54:55;7.27;;;6.00;;
2480;SDS011;57396;48.742;9.128;2022-09-21T07:57:21;7.63;;;5.83;;
2480;SDS011;57396;48.742;9.128;2022-09-21T08:00:05;14.17;;;6.30;;
2480;SDS011;57396;48.742;9.128;2022-09-21T08:02:31;10.70;;;5.93;;
2480;SDS011;57396;48.742;9.128;2022-09-21T08:04:56;7.63;;;5.10;;
2480;SDS011;57396;48.742;9.128;2022-09-21T08:07:22;6.50;;;4.77;;
2480;SDS011;57396;48.742;9.128;2022-09-21T08:09:47;6.97;;;5.00;;
2480;SDS011;57396;48.742;9.128;2022-09-21T08:12:15;6.37;;;4.63;;
2480;SDS011;57396;48.742;9.128;2022-09-21T08:14:42;9.87;;;4.83;;
2480;SDS011;57396;48.742;9.128;2022-09-21T08:17:08;7.57;;;4.40;;
2480;SDS011;57396;48.742;9.128;2022-09-21T08:19:33;6.90;;;4.33;;
2480;SDS011;57396;48.742;9.128;2022-09-21T08:22:00;5.03;;;4.13;;
2480;SDS011;57396;48.742;9.128;2022-09-21T08:24:26;4.60;;;3.73;;
2480;SDS011;57396;48.742;9.128;2022-09-21T08:26:51;6.00;;;3.33;;
2480;SDS011;57396;48.742;9.128;2022-09-21T08:29:17;6.70;;;3.37;;
2480;SDS011;57396;48.742;9.128;2022-09-21T08:31:42;6.20;;;2.87;;
2480;SDS011;57396;48.742;9.128;2022-09-21T08:34:08;4.20;;;3.40;;
2480;SDS011;57396;48.742;9.128;2022-09-21T08:36:33;5.60;;;4.13;;
2480;SDS011;57396;48.742;9.128;2022-09-21T08:38:59;5.43;;;3.00;;
2480;SDS011;57396;48.742;9.128;2022-09-21T08:44:19;3.90;;;2.90;;
2480;SDS011;57396;48.742;9.128;2022-09-21T08:46:47;6.17;;;4.17;;
2480;SDS011;57396;48.742;9.128;2022-09-21T08:49:20;5.20;;;3.80;;
2480;SDS011;57396;48.742;9.128;2022-09-21T08:52:01;6.03;;;3.93;;
2480;SDS011;57396;48.742;9.128;2022-09-21T08:54:53;6.00;;;3.77;;
2480;SDS011;57396;48.742;9.128;2022-09-21T08:57:22;7.23;;;4.10;;
2480;SDS011;57396;48.742;9.128;2022-09-21T09:00:01;8.67;;;4.70;;
2480;SDS011;57396;48.742;9.128;2022-09-21T09:08:12;3.97;;;2.10;;
2480;SDS011;57396;48.742;9.128;2022-09-21T09:16:17;1.97;;;1.10;;
2480;SDS011;57396;48.742;9.128;2022-09-21T09:18:54;2.07;;;1.13;;
2480;SDS011;57396;48.742;9.128;2022-09-21T09:21:33;3.90;;;1.30;;
2480;SDS011;57396;48.742;9.128;2022-09-21T09:24:03;2.07;;;1.13;;
2480;SDS011;57396;48.742;9.128;2022-09-21T09:29:28;5.20;;;1.30;;
2480;SDS011;57396;48.742;9.128;2022-09-21T09:31:56;2.73;;;1.17;;
2480;SDS011;57396;48.742;9.128;2022-09-21T09:34:23;2.60;;;1.20;;
2480;SDS011;57396;48.742;9.128;2022-09-21T09:36:57;3.13;;;1.13;;
2480;SDS011;57396;48.742;9.128;2022-09-21T09:39:23;2.67;;;1.30;;
2480;SDS011;57396;48.742;9.128;2022-09-21T09:42:09;2.13;;;1.00;;
2480;SDS011;57396;48.742;9.128;2022-09-21T09:47:45;2.93;;;1.20;;
2480;SDS011;57396;48.742;9.128;2022-09-21T09:53:09;3.40;;;1.20;;
2480;SDS011;57396;48.742;9.128;2022-09-21T09:55:38;2.80;;;1.30;;
2480;SDS011;57396;48.742;9.128;2022-09-21T09:58:21;3.27;;;1.33;;
2480;SDS011;57396;48.742;9.128;2022-09-21T10:00:52;2.93;;;1.03;;
2480;SDS011;57396;48.742;9.128;2022-09-21T10:03:22;3.80;;;1.30;;
2480;SDS011;57396;48.742;9.128;2022-09-21T10:05:48;1.40;;;0.90;;
2480;SDS011;57396;48.742;9.128;2022-09-21T10:08:25;2.63;;;1.33;;
2480;SDS011;57396;48.742;9.128;2022-09-21T10:11:08;5.50;;;1.60;;
2480;SDS011;57396;48.742;9.128;2022-09-21T10:13:37;3.37;;;1.60;;
2480;SDS011;57396;48.742;9.128;2022-09-21T10:21:18;4.53;;;1.43;;
2480;SDS011;57396;48.742;9.128;2022-09-21T10:24:00;4.23;;;2.53;;
2480;SDS011;57396;48.742;9.128;2022-09-21T10:34:29;3.33;;;1.90;;
2480;SDS011;57396;48.742;9.128;2022-09-21T10:36:56;2.40;;;1.83;;
2480;SDS011;57396;48.742;9.128;2022-09-21T10:39:29;2.50;;;1.80;;
2480;SDS011;57396;48.742;9.128;2022-09-21T10:41:57;2.73;;;1.80;;
2480;SDS011;57396;48.742;9.128;2022-09-21T10:47:21;3.57;;;1.77;;
2480;SDS011;57396;48.742;9.128;2022-09-21T10:49:52;5.43;;;1.80;;
2480;SDS011;57396;48.742;9.128;2022-09-21T10:52:20;5.00;;;1.60;;
2480;SDS011;57396;48.742;9.128;2022-09-21T10:54:47;3.70;;;1.63;;
2480;SDS011;57396;48.742;9.128;2022-09-21T10:57:16;1.60;;;1.30;;
2480;SDS011;57396;48.742;9.128;2022-09-21T10:59:43;2.20;;;1.57;;
2480;SDS011;57396;48.742;9.128;2022-09-21T11:05:22;5.90;;;1.20;;
2480;SDS011;57396;48.742;9.128;2022-09-21T11:21:47;1.43;;;1.20;;
2480;SDS011;57396;48.742;9.128;2022-09-21T11:27:30;4.13;;;1.03;;
2480;SDS011;57396;48.742;9.128;2022-09-21T11:30:05;3.50;;;1.40;;
2480;SDS011;57396;48.742;9.128;2022-09-21T11:35:38;1.70;;;1.10;;
2480;SDS011;57396;48.742;9.128;2022-09-21T11:41:44;1.30;;;0.90;;
2480;SDS011;57396;48.742;9.128;2022-09-21T11:46:48;2.80;;;1.30;;
2480;SDS011;57396;48.742;9.128;2022-09-21T11:49:45;2.90;;;1.20;;
2480;SDS011;57396;48.742;9.128;2022-09-21T11:57:47;2.03;;;1.23;;
2480;SDS011;57396;48.742;9.128;2022-09-21T12:00:20;2.70;;;0.93;;
2480;SDS011;57396;48.742;9.128;2022-09-21T12:11:10;3.00;;;0.90;;
2480;SDS011;57396;48.742;9.128;2022-09-21T12:16:52;1.83;;;1.10;;
2480;SDS011;57396;48.742;9.128;2022-09-21T12:22:10;3.73;;;0.90;;
2480;SDS011;57396;48.742;9.128;2022-09-21T12:24:39;1.50;;;0.70;;
2480;SDS011;57396;48.742;9.128;2022-09-21T12:29:52;3.43;;;0.80;;
2480;SDS011;57396;48.742;9.128;2022-09-21T12:35:05;2.70;;;0.83;;
2480;SDS011;57396;48.742;9.128;2022-09-21T12:37:34;1.40;;;0.97;;
2480;SDS011;57396;48.742;9.128;2022-09-21T12:40:17;2.43;;;0.90;;
2480;SDS011;57396;48.742;9.128;2022-09-21T12:42:51;1.83;;;1.00;;
2480;SDS011;57396;48.742;9.128;2022-09-21T12:45:27;1.70;;;0.80;;
2480;SDS011;57396;48.742;9.128;2022-09-21T12:47:58;1.93;;;0.90;;
2480;SDS011;57396;48.742;9.128;2022-09-21T12:50:46;1.20;;;0.80;;
2480;SDS011;57396;48.742;9.128;2022-09-21T12:53:16;1.50;;;0.80;;
2480;SDS011;57396;48.742;9.128;2022-09-21T12:55:59;2.13;;;0.70;;
2480;SDS011;57396;48.742;9.128;2022-09-21T13:09:49;1.93;;;0.80;;
2480;SDS011;57396;48.742;9.128;2022-09-21T13:12:19;1.03;;;0.80;;
2480;SDS011;57396;48.742;9.128;2022-09-21T13:14:48;1.20;;;0.77;;
2480;SDS011;57396;48.742;9.128;2022-09-21T13:17:37;2.90;;;0.73;;
2480;SDS011;57396;48.742;9.128;2022-09-21T13:20:03;2.20;;;1.20;;
2480;SDS011;57396;48.742;9.128;2022-09-21T13:22:50;2.80;;;0.83;;
2480;SDS011;57396;48.742;9.128;2022-09-21T13:25:25;1.30;;;0.97;;
2480;SDS011;57396;48.742;9.128;2022-09-21T13:27:57;1.87;;;0.90;;
2480;SDS011;57396;48.742;9.128;2022-09-21T13:41:31;2.60;;;1.00;;
2480;SDS011;57396;48.742;9.128;2022-09-21T13:52:41;2.53;;;0.87;;
2480;SDS011;57396;48.742;9.128;2022-09-21T14:02:43;1.97;;;0.77;;
2480;SDS011;57396;48.742;9.128;2022-09-21T14:07:43;1.20;;;0.90;;
2480;SDS011;57396;48.742;9.128;2022-09-21T14:10:15;7.53;;;1.07;;
2480;SDS011;57396;48.742;9.128;2022-09-21T14:12:42;1.10;;;0.80;;
2480;SDS011;57396;48.742;9.128;2022-09-21T14:17:43;1.50;;;0.90;;
2480;SDS011;57396;48.742;9.128;2022-09-21T14:20:26;1.60;;;0.90;;
2480;SDS011;57396;48.742;9.128;2022-09-21T14:25:55;1.20;;;0.77;;
2480;SDS011;57396;48.742;9.128;2022-09-21T14:28:33;1.60;;;0.90;;
2480;SDS011;57396;48.742;9.128;2022-09-21T14:31:06;1.33;;;0.80;;
2480;SDS011;57396;48.742;9.128;2022-09-21T14:36:10;1.30;;;0.80;;
2480;SDS011;57396;48.742;9.128;2022-09-21T14:38:46;1.67;;;0.90;;
2480;SDS011;57396;48.742;9.128;2022-09-21T14:41:15;1.40;;;0.90;;
2480;SDS011;57396;48.742;9.128;2022-09-21T14:43:47;1.40;;;0.90;;
2480;SDS011;57396;48.742;9.128;2022-09-21T14:51:36;5.00;;;1.10;;
2480;SDS011;57396;48.742;9.128;2022-09-21T14:54:14;1.73;;;0.80;;
2480;SDS011;57396;48.742;9.128;2022-09-21T14:59:41;1.33;;;0.67;;
2480;SDS011;57396;48.742;9.128;2022-09-21T15:02:17;2.43;;;1.13;;
2480;SDS011;57396;48.742;9.128;2022-09-21T15:05:08;2.60;;;0.90;;
2480;SDS011;57396;48.742;9.128;2022-09-21T15:11:15;1.73;;;0.80;;
2480;SDS011;57396;48.742;9.128;2022-09-21T15:16:42;1.40;;;0.70;;
2480;SDS011;57396;48.742;9.128;2022-09-21T15:21:41;1.60;;;0.90;;
2480;SDS011;57396;48.742;9.128;2022-09-21T15:24:28;7.33;;;1.30;;
2480;SDS011;57396;48.742;9.128;2022-09-21T15:27:06;2.50;;;1.23;;
2480;SDS011;57396;48.742;9.128;2022-09-21T15:29:34;1.77;;;1.20;;
2480;SDS011;57396;48.742;9.128;2022-09-21T15:32:00;2.77;;;1.00;;
2480;SDS011;57396;48.742;9.128;2022-09-21T15:34:26;1.80;;;0.90;;
2480;SDS011;57396;48.742;9.128;2022-09-21T15:36:52;4.40;;;1.00;;
2480;SDS011;57396;48.742;9.128;2022-09-21T15:39:27;1.23;;;0.80;;
2480;SDS011;57396;48.742;9.128;2022-09-21T15:42:07;2.70;;;1.07;;
2480;SDS011;57396;48.742;9.128;2022-09-21T15:44:41;2.17;;;1.23;;
2480;SDS011;57396;48.742;9.128;2022-09-21T15:47:12;2.33;;;0.90;;
2480;SDS011;57396;48.742;9.128;2022-09-21T15:49:39;6.70;;;0.90;;
2480;SDS011;57396;48.742;9.128;2022-09-21T15:55:12;2.33;;;1.17;;
2480;SDS011;57396;48.742;9.128;2022-09-21T15:57:43;1.10;;;0.70;;
2480;SDS011;57396;48.742;9.128;2022-09-21T16:02:40;1.30;;;0.93;;
2480;SDS011;57396;48.742;9.128;2022-09-21T16:05:13;1.00;;;0.83;;
2480;SDS011;57396;48.742;9.128;2022-09-21T16:07:38;1.40;;;0.80;;
2480;SDS011;57396;48.742;9.128;2022-09-21T16:13:18;1.80;;;0.83;;
2480;SDS011;57396;48.742;9.128;2022-09-21T16:16:05;1.10;;;0.80;;
2480;SDS011;57396;48.742;9.128;2022-09-21T16:18:44;1.50;;;1.00;;
2480;SDS011;57396;48.742;9.128;2022-09-21T16:21:21;7.13;;;1.03;;
2480;SDS011;57396;48.742;9.128;2022-09-21T16:23:49;1.53;;;1.10;;
2480;SDS011;57396;48.742;9.128;2022-09-21T16:26:20;2.47;;;1.17;;
2480;SDS011;57396;48.742;9.128;2022-09-21T16:29:22;1.43;;;1.00;;
2480;SDS011;57396;48.742;9.128;2022-09-21T16:31:50;3.53;;;1.40;;
2480;SDS011;57396;48.742;9.128;2022-09-21T16:34:29;2.80;;;1.10;;
2480;SDS011;57396;48.742;9.128;2022-09-21T16:37:00;1.63;;;1.17;;
2480;SDS011;57396;48.742;9.128;2022-09-21T16:39:27;1.53;;;0.97;;
2480;SDS011;57396;48.742;9.128;2022-09-21T16:41:56;1.83;;;0.90;;
2480;SDS011;57396;48.742;9.128;2022-09-21T16:44:25;1.80;;;1.03;;
2480;SDS011;57396;48.742;9.128;2022-09-21T16:46:56;2.33;;;1.20;;
2480;SDS011;57396;48.742;9.128;2022-09-21T16:49:23;3.40;;;1.67;;
2480;SDS011;57396;48.742;9.128;2022-09-21T16:51:51;3.20;;;1.70;;
2480;SDS011;57396;48.742;9.128;2022-09-21T16:54:18;2.70;;;2.50;;
2480;SDS011;57396;48.742;9.128;2022-09-21T16:56:53;2.50;;;1.50;;
2480;SDS011;57396;48.742;9.128;2022-09-21T16:59:19;2.37;;;1.90;;
2480;SDS011;57396;48.742;9.128;2022-09-21T17:01:47;1.90;;;1.70;;
2480;SDS011;57396;48.742;9.128;2022-09-21T17:04:15;1.67;;;1.30;;
2480;SDS011;57396;48.742;9.128;2022-09-21T17:06:41;2.20;;;1.67;;
2480;SDS011;57396;48.742;9.128;2022-09-21T17:09:49;2.30;;;1.43;;
2480;SDS011;57396;48.742;9.128;2022-09-21T17:11:58;1.87;;;1.57;;
2480;SDS011;57396;48.742;9.128;2022-09-21T17:14:25;1.53;;;1.43;;
2480;SDS011;57396;48.742;9.128;2022-09-21T17:16:55;1.30;;;1.20;;
2480;SDS011;57396;48.742;9.128;2022-09-21T17:19:22;6.00;;;1.47;;
2480;SDS011;57396;48.742;9.128;2022-09-21T17:21:49;2.20;;;1.23;;
2480;SDS011;57396;48.742;9.128;2022-09-21T17:24:14;1.40;;;1.10;;
2480;SDS011;57396;48.742;9.128;2022-09-21T17:26:41;1.50;;;1.10;;
2480;SDS011;57396;48.742;9.128;2022-09-21T17:29:17;1.53;;;1.10;;
2480;SDS011;57396;48.742;9.128;2022-09-21T17:31:48;5.40;;;1.27;;
2480;SDS011;57396;48.742;9.128;2022-09-21T17:34:15;2.40;;;1.10;;
2480;SDS011;57396;48.742;9.128;2022-09-21T17:36:41;2.40;;;1.40;;
2480;SDS011;57396;48.742;9.128;2022-09-21T17:39:06;1.70;;;1.60;;
2480;SDS011;57396;48.742;9.128;2022-09-21T17:44:08;2.10;;;1.80;;
2480;SDS011;57396;48.742;9.128;2022-09-21T17:49:26;2.67;;;1.57;;
2480;SDS011;57396;48.742;9.128;2022-09-21T17:51:51;2.17;;;1.97;;
2480;SDS011;57396;48.742;9.128;2022-09-21T17:54:36;3.57;;;3.13;;
2480;SDS011;57396;48.742;9.128;2022-09-21T18:00:02;6.30;;;4.00;;
2480;SDS011;57396;48.742;9.128;2022-09-21T18:02:34;4.23;;;2.97;;
2480;SDS011;57396;48.742;9.128;2022-09-21T18:05:02;5.47;;;3.07;;
2480;SDS011;57396;48.742;9.128;2022-09-21T18:07:30;3.43;;;2.50;;
2480;SDS011;57396;48.742;9.128;2022-09-21T18:09:56;5.10;;;2.50;;
2480;SDS011;57396;48.742;9.128;2022-09-21T18:15:11;4.70;;;3.37;;
2480;SDS011;57396;48.742;9.128;2022-09-21T18:20:38;4.53;;;2.77;;
2480;SDS011;57396;48.742;9.128;2022-09-21T18:26:07;3.73;;;3.33;;
2480;SDS011;57396;48.742;9.128;2022-09-21T18:28:41;4.60;;;2.90;;
2480;SDS011;57396;48.742;9.128;2022-09-21T18:36:45;7.10;;;3.50;;
2480;SDS011;57396;48.742;9.128;2022-09-21T18:39:20;9.80;;;4.37;;
2480;SDS011;57396;48.742;9.128;2022-09-21T18:42:03;8.90;;;4.80;;
2480;SDS011;57396;48.742;9.128;2022-09-21T18:44:48;6.83;;;3.80;;
2480;SDS011;57396;48.742;9.128;2022-09-21T18:50:14;11.23;;;3.80;;
2480;SDS011;57396;48.742;9.128;2022-09-21T18:55:16;7.07;;;4.37;;
2480;SDS011;57396;48.742;9.128;2022-09-21T18:57:43;7.00;;;4.47;;
2480;SDS011;57396;48.742;9.128;2022-09-21T19:00:10;8.20;;;4.93;;
2480;SDS011;57396;48.742;9.128;2022-09-21T19:02:36;9.13;;;5.03;;
2480;SDS011;57396;48.742;9.128;2022-09-21T19:05:02;8.00;;;6.00;;
2480;SDS011;57396;48.742;9.128;2022-09-21T19:07:30;10.93;;;6.20;;
2480;SDS011;57396;48.742;9.128;2022-09-21T19:10:16;11.53;;;5.83;;
2480;SDS011;57396;48.742;9.128;2022-09-21T19:15:13;7.67;;;5.13;;
2480;SDS011;57396;48.742;9.128;2022-09-21T19:20:40;7.30;;;5.23;;
2480;SDS011;57396;48.742;9.128;2022-09-21T19:23:17;11.93;;;5.13;;
2480;SDS011;57396;48.742;9.128;2022-09-21T19:26:10;10.33;;;5.23;;